sensor_id;sensor_type;location;lat;lon;timestamp;P1;durP1;ratioP1;P2;durP2;ratioP2
74335;SDS011;62755;-33.398;-70.572;2022-09-09T00:01:25;10.63;;;5.80;;
74335;SDS011;62755;-33.398;-70.572;2022-09-09T00:04:10;15.27;;;5.57;;
74335;SDS011;62755;-33.398;-70.572;2022-09-09T00:09:23;16.77;;;6.18;;
74335;SDS011;62755;-33.398;-70.572;2022-09-09T00:11:56;18.38;;;5.63;;
74335;SDS011;62755;-33.398;-70.572;2022-09-09T00:14:35;7.05;;;4.85;;
74335;SDS011;62755;-33.398;-70.572;2022-09-09T00:17:09;15.40;;;4.57;;
74335;SDS011;62755;-33.398;-70.572;2022-09-09T00:19:47;11.43;;;4.93;;
74335;SDS011;62755;-33.398;-70.572;2022-09-09T00:22:21;10.38;;;5.15;;
74335;SDS011;62755;-33.398;-70.572;2022-09-09T00:24:55;14.27;;;4.70;;
74335;SDS011;62755;-33.398;-70.572;2022-09-09T00:27:32;12.75;;;4.65;;
74335;SDS011;62755;-33.398;-70.572;2022-09-09T00:30:13;8.38;;;4.75;;
74335;SDS011;62755;-33.398;-70.572;2022-09-09T00:32:45;23.17;;;7.38;;
74335;SDS011;62755;-33.398;-70.572;2022-09-09T00:35:16;15.00;;;7.18;;
74335;SDS011;62755;-33.398;-70.572;2022-09-09T00:37:51;12.90;;;6.43;;
74335;SDS011;62755;-33.398;-70.572;2022-09-09T00:40:26;19.08;;;4.68;;
74335;SDS011;62755;-33.398;-70.572;2022-09-09T00:43:08;17.63;;;6.85;;
74335;SDS011;62755;-33.398;-70.572;2022-09-09T00:45:55;17.05;;;6.05;;
74335;SDS011;62755;-33.398;-70.572;2022-09-09T00:48:45;32.38;;;14.95;;
74335;SDS011;62755;-33.398;-70.572;2022-09-09T00:51:22;17.38;;;7.30;;
74335;SDS011;62755;-33.398;-70.572;2022-09-09T00:57:01;24.02;;;7.90;;
74335;SDS011;62755;-33.398;-70.572;2022-09-09T00:59:45;19.63;;;7.78;;
74335;SDS011;62755;-33.398;-70.572;2022-09-09T01:02:25;21.98;;;6.82;;
74335;SDS011;62755;-33.398;-70.572;2022-09-09T01:04:58;89.18;;;44.25;;
74335;SDS011;62755;-33.398;-70.572;2022-09-09T01:07:35;73.25;;;36.13;;
74335;SDS011;62755;-33.398;-70.572;2022-09-09T01:10:07;27.77;;;14.13;;
74335;SDS011;62755;-33.398;-70.572;2022-09-09T01:12:52;36.78;;;14.32;;
74335;SDS011;62755;-33.398;-70.572;2022-09-09T01:15:25;22.33;;;10.35;;
74335;SDS011;62755;-33.398;-70.572;2022-09-09T01:17:59;24.75;;;8.07;;
74335;SDS011;62755;-33.398;-70.572;2022-09-09T01:20:35;18.10;;;7.78;;
74335;SDS011;62755;-33.398;-70.572;2022-09-09T01:23:16;36.42;;;11.48;;
74335;SDS011;62755;-33.398;-70.572;2022-09-09T01:26:13;16.05;;;7.72;;
74335;SDS011;62755;-33.398;-70.572;2022-09-09T01:28:48;20.10;;;7.97;;
74335;SDS011;62755;-33.398;-70.572;2022-09-09T01:31:21;60.72;;;24.40;;
74335;SDS011;62755;-33.398;-70.572;2022-09-09T01:33:59;24.20;;;10.18;;
74335;SDS011;62755;-33.398;-70.572;2022-09-09T01:36:31;95.72;;;40.72;;
74335;SDS011;62755;-33.398;-70.572;2022-09-09T01:39:07;92.65;;;40.80;;
74335;SDS011;62755;-33.398;-70.572;2022-09-09T01:41:39;44.55;;;17.48;;
74335;SDS011;62755;-33.398;-70.572;2022-09-09T01:44:08;39.80;;;16.67;;
74335;SDS011;62755;-33.398;-70.572;2022-09-09T01:46:39;36.38;;;14.93;;
74335;SDS011;62755;-33.398;-70.572;2022-09-09T01:49:08;47.13;;;19.20;;
74335;SDS011;62755;-33.398;-70.572;2022-09-09T01:51:38;37.40;;;14.32;;
74335;SDS011;62755;-33.398;-70.572;2022-09-09T01:54:10;23.02;;;10.80;;
74335;SDS011;62755;-33.398;-70.572;2022-09-09T01:56:43;29.35;;;12.00;;
74335;SDS011;62755;-33.398;-70.572;2022-09-09T01:59:30;31.60;;;11.25;;
74335;SDS011;62755;-33.398;-70.572;2022-09-09T02:02:26;36.97;;;14.88;;
74335;SDS011;62755;-33.398;-70.572;2022-09-09T02:05:04;43.53;;;18.20;;
74335;SDS011;62755;-33.398;-70.572;2022-09-09T02:07:40;37.25;;;14.27;;
74335;SDS011;62755;-33.398;-70.572;2022-09-09T02:10:11;37.55;;;13.00;;
74335;SDS011;62755;-33.398;-70.572;2022-09-09T02:12:47;29.63;;;12.93;;
74335;SDS011;62755;-33.398;-70.572;2022-09-09T02:15:23;43.63;;;19.65;;
74335;SDS011;62755;-33.398;-70.572;2022-09-09T02:17:59;36.45;;;14.00;;
74335;SDS011;62755;-33.398;-70.572;2022-09-09T02:20:33;66.28;;;27.60;;
74335;SDS011;62755;-33.398;-70.572;2022-09-09T02:23:07;68.18;;;32.55;;
74335;SDS011;62755;-33.398;-70.572;2022-09-09T02:25:37;43.75;;;20.00;;
74335;SDS011;62755;-33.398;-70.572;2022-09-09T02:28:11;75.93;;;29.30;;
74335;SDS011;62755;-33.398;-70.572;2022-09-09T02:30:45;40.22;;;16.05;;
74335;SDS011;62755;-33.398;-70.572;2022-09-09T02:33:21;45.33;;;18.05;;
74335;SDS011;62755;-33.398;-70.572;2022-09-09T02:35:54;37.00;;;16.00;;
74335;SDS011;62755;-33.398;-70.572;2022-09-09T02:38:29;53.22;;;20.48;;
74335;SDS011;62755;-33.398;-70.572;2022-09-09T02:41:03;47.80;;;18.52;;
74335;SDS011;62755;-33.398;-70.572;2022-09-09T02:43:35;66.63;;;27.77;;
74335;SDS011;62755;-33.398;-70.572;2022-09-09T02:46:07;57.38;;;27.10;;
74335;SDS011;62755;-33.398;-70.572;2022-09-09T02:48:44;61.67;;;27.60;;
74335;SDS011;62755;-33.398;-70.572;2022-09-09T02:51:23;192.32;;;84.90;;
74335;SDS011;62755;-33.398;-70.572;2022-09-09T02:54:06;50.67;;;22.38;;
74335;SDS011;62755;-33.398;-70.572;2022-09-09T02:56:44;124.32;;;53.15;;
74335;SDS011;62755;-33.398;-70.572;2022-09-09T02:59:19;150.55;;;59.33;;
74335;SDS011;62755;-33.398;-70.572;2022-09-09T03:01:49;62.72;;;25.70;;
74335;SDS011;62755;-33.398;-70.572;2022-09-09T03:04:19;43.50;;;17.88;;
74335;SDS011;62755;-33.398;-70.572;2022-09-09T03:06:48;52.63;;;20.50;;
74335;SDS011;62755;-33.398;-70.572;2022-09-09T03:09:18;36.08;;;15.35;;
74335;SDS011;62755;-33.398;-70.572;2022-09-09T03:11:48;28.13;;;11.45;;
74335;SDS011;62755;-33.398;-70.572;2022-09-09T03:14:19;35.03;;;15.63;;
74335;SDS011;62755;-33.398;-70.572;2022-09-09T03:16:51;43.70;;;19.75;;
74335;SDS011;62755;-33.398;-70.572;2022-09-09T03:19:22;50.97;;;22.90;;
74335;SDS011;62755;-33.398;-70.572;2022-09-09T03:21:52;38.30;;;17.00;;
74335;SDS011;62755;-33.398;-70.572;2022-09-09T03:24:23;76.13;;;30.75;;
74335;SDS011;62755;-33.398;-70.572;2022-09-09T03:26:52;34.83;;;13.60;;
74335;SDS011;62755;-33.398;-70.572;2022-09-09T03:29:23;21.52;;;10.55;;
74335;SDS011;62755;-33.398;-70.572;2022-09-09T03:31:53;25.33;;;10.13;;
74335;SDS011;62755;-33.398;-70.572;2022-09-09T03:34:23;23.30;;;8.05;;
74335;SDS011;62755;-33.398;-70.572;2022-09-09T03:36:52;18.42;;;7.65;;
74335;SDS011;62755;-33.398;-70.572;2022-09-09T03:39:22;13.27;;;5.60;;
74335;SDS011;62755;-33.398;-70.572;2022-09-09T03:41:53;18.15;;;5.72;;
74335;SDS011;62755;-33.398;-70.572;2022-09-09T03:44:25;17.10;;;5.75;;
74335;SDS011;62755;-33.398;-70.572;2022-09-09T03:46:54;14.25;;;6.35;;
74335;SDS011;62755;-33.398;-70.572;2022-09-09T03:49:26;13.75;;;5.65;;
74335;SDS011;62755;-33.398;-70.572;2022-09-09T03:51:56;8.55;;;5.18;;
74335;SDS011;62755;-33.398;-70.572;2022-09-09T03:54:26;13.23;;;5.53;;
74335;SDS011;62755;-33.398;-70.572;2022-09-09T03:56:56;16.52;;;5.57;;
74335;SDS011;62755;-33.398;-70.572;2022-09-09T03:59:28;12.05;;;6.07;;
74335;SDS011;62755;-33.398;-70.572;2022-09-09T04:01:57;37.65;;;16.95;;
74335;SDS011;62755;-33.398;-70.572;2022-09-09T04:04:27;15.50;;;7.05;;
74335;SDS011;62755;-33.398;-70.572;2022-09-09T04:06:56;63.78;;;31.95;;
74335;SDS011;62755;-33.398;-70.572;2022-09-09T04:09:26;59.35;;;28.23;;
74335;SDS011;62755;-33.398;-70.572;2022-09-09T04:11:56;59.90;;;30.40;;
74335;SDS011;62755;-33.398;-70.572;2022-09-09T04:14:27;39.72;;;16.85;;
74335;SDS011;62755;-33.398;-70.572;2022-09-09T04:16:57;113.80;;;57.90;;
74335;SDS011;62755;-33.398;-70.572;2022-09-09T04:19:26;112.82;;;55.10;;
74335;SDS011;62755;-33.398;-70.572;2022-09-09T04:21:57;47.83;;;24.42;;
74335;SDS011;62755;-33.398;-70.572;2022-09-09T04:24:26;17.30;;;7.30;;
74335;SDS011;62755;-33.398;-70.572;2022-09-09T04:26:56;15.40;;;6.57;;
74335;SDS011;62755;-33.398;-70.572;2022-09-09T04:29:27;9.40;;;5.93;;
74335;SDS011;62755;-33.398;-70.572;2022-09-09T04:31:57;11.63;;;5.80;;
74335;SDS011;62755;-33.398;-70.572;2022-09-09T04:34:27;8.98;;;5.93;;
74335;SDS011;62755;-33.398;-70.572;2022-09-09T04:36:57;21.48;;;8.85;;
74335;SDS011;62755;-33.398;-70.572;2022-09-09T04:39:26;15.88;;;6.60;;
74335;SDS011;62755;-33.398;-70.572;2022-09-09T04:41:56;19.40;;;10.55;;
74335;SDS011;62755;-33.398;-70.572;2022-09-09T04:44:27;21.08;;;11.95;;
74335;SDS011;62755;-33.398;-70.572;2022-09-09T04:46:57;22.98;;;13.02;;
74335;SDS011;62755;-33.398;-70.572;2022-09-09T04:49:26;27.67;;;13.73;;
74335;SDS011;62755;-33.398;-70.572;2022-09-09T04:51:57;16.73;;;8.40;;
74335;SDS011;62755;-33.398;-70.572;2022-09-09T04:54:26;29.08;;;15.38;;
74335;SDS011;62755;-33.398;-70.572;2022-09-09T04:56:56;23.17;;;11.55;;
74335;SDS011;62755;-33.398;-70.572;2022-09-09T04:59:28;46.15;;;18.25;;
74335;SDS011;62755;-33.398;-70.572;2022-09-09T05:01:58;21.75;;;12.48;;
74335;SDS011;62755;-33.398;-70.572;2022-09-09T05:04:29;30.30;;;13.18;;
74335;SDS011;62755;-33.398;-70.572;2022-09-09T05:06:58;20.00;;;10.07;;
74335;SDS011;62755;-33.398;-70.572;2022-09-09T05:09:28;18.45;;;7.13;;
74335;SDS011;62755;-33.398;-70.572;2022-09-09T05:11:58;17.55;;;7.50;;
74335;SDS011;62755;-33.398;-70.572;2022-09-09T05:14:31;8.80;;;5.60;;
74335;SDS011;62755;-33.398;-70.572;2022-09-09T05:17:02;7.65;;;6.15;;
74335;SDS011;62755;-33.398;-70.572;2022-09-09T05:19:31;12.45;;;6.45;;
74335;SDS011;62755;-33.398;-70.572;2022-09-09T05:22:01;9.98;;;6.25;;
74335;SDS011;62755;-33.398;-70.572;2022-09-09T05:24:31;10.93;;;6.03;;
74335;SDS011;62755;-33.398;-70.572;2022-09-09T05:27:00;10.02;;;6.40;;
74335;SDS011;62755;-33.398;-70.572;2022-09-09T05:29:32;8.65;;;5.70;;
74335;SDS011;62755;-33.398;-70.572;2022-09-09T05:32:02;19.90;;;11.88;;
74335;SDS011;62755;-33.398;-70.572;2022-09-09T05:34:32;8.20;;;6.38;;
74335;SDS011;62755;-33.398;-70.572;2022-09-09T05:37:03;9.25;;;6.00;;
74335;SDS011;62755;-33.398;-70.572;2022-09-09T05:39:33;10.65;;;5.93;;
74335;SDS011;62755;-33.398;-70.572;2022-09-09T05:42:04;14.63;;;6.10;;
74335;SDS011;62755;-33.398;-70.572;2022-09-09T05:44:35;8.73;;;6.00;;
74335;SDS011;62755;-33.398;-70.572;2022-09-09T05:47:05;8.70;;;6.15;;
74335;SDS011;62755;-33.398;-70.572;2022-09-09T05:49:35;9.77;;;6.38;;
74335;SDS011;62755;-33.398;-70.572;2022-09-09T05:52:04;10.05;;;5.57;;
74335;SDS011;62755;-33.398;-70.572;2022-09-09T05:54:35;11.35;;;7.20;;
74335;SDS011;62755;-33.398;-70.572;2022-09-09T05:57:06;10.55;;;7.00;;
74335;SDS011;62755;-33.398;-70.572;2022-09-09T05:59:37;10.45;;;6.20;;
74335;SDS011;62755;-33.398;-70.572;2022-09-09T06:02:08;13.10;;;5.93;;
74335;SDS011;62755;-33.398;-70.572;2022-09-09T06:04:38;7.30;;;5.80;;
74335;SDS011;62755;-33.398;-70.572;2022-09-09T06:07:07;11.38;;;6.57;;
74335;SDS011;62755;-33.398;-70.572;2022-09-09T06:09:37;10.43;;;5.65;;
74335;SDS011;62755;-33.398;-70.572;2022-09-09T06:12:07;8.63;;;5.57;;
74335;SDS011;62755;-33.398;-70.572;2022-09-09T06:14:38;8.45;;;5.97;;
74335;SDS011;62755;-33.398;-70.572;2022-09-09T06:17:08;7.70;;;5.80;;
74335;SDS011;62755;-33.398;-70.572;2022-09-09T06:19:37;10.63;;;6.15;;
74335;SDS011;62755;-33.398;-70.572;2022-09-09T06:22:07;11.07;;;5.65;;
74335;SDS011;62755;-33.398;-70.572;2022-09-09T06:24:38;9.10;;;5.90;;
74335;SDS011;62755;-33.398;-70.572;2022-09-09T06:27:08;10.60;;;5.88;;
74335;SDS011;62755;-33.398;-70.572;2022-09-09T06:29:41;8.18;;;5.30;;
74335;SDS011;62755;-33.398;-70.572;2022-09-09T06:32:10;7.75;;;5.35;;
74335;SDS011;62755;-33.398;-70.572;2022-09-09T06:34:40;8.48;;;5.63;;
74335;SDS011;62755;-33.398;-70.572;2022-09-09T06:37:09;8.93;;;5.30;;
74335;SDS011;62755;-33.398;-70.572;2022-09-09T06:39:40;13.75;;;5.47;;
74335;SDS011;62755;-33.398;-70.572;2022-09-09T06:42:09;9.80;;;5.50;;
74335;SDS011;62755;-33.398;-70.572;2022-09-09T06:44:41;14.57;;;5.80;;
74335;SDS011;62755;-33.398;-70.572;2022-09-09T06:47:10;8.32;;;5.70;;
74335;SDS011;62755;-33.398;-70.572;2022-09-09T06:49:40;10.10;;;6.15;;
74335;SDS011;62755;-33.398;-70.572;2022-09-09T06:52:10;9.18;;;6.22;;
74335;SDS011;62755;-33.398;-70.572;2022-09-09T06:54:40;7.50;;;5.57;;
74335;SDS011;62755;-33.398;-70.572;2022-09-09T06:57:11;8.82;;;6.53;;
74335;SDS011;62755;-33.398;-70.572;2022-09-09T06:59:42;8.50;;;5.78;;
74335;SDS011;62755;-33.398;-70.572;2022-09-09T07:02:12;7.55;;;5.20;;
74335;SDS011;62755;-33.398;-70.572;2022-09-09T07:04:42;9.95;;;5.93;;
74335;SDS011;62755;-33.398;-70.572;2022-09-09T07:07:12;9.27;;;5.35;;
74335;SDS011;62755;-33.398;-70.572;2022-09-09T07:09:43;6.60;;;4.97;;
74335;SDS011;62755;-33.398;-70.572;2022-09-09T07:12:13;11.77;;;5.25;;
74335;SDS011;62755;-33.398;-70.572;2022-09-09T07:14:44;7.68;;;5.43;;
74335;SDS011;62755;-33.398;-70.572;2022-09-09T07:17:14;6.07;;;5.20;;
74335;SDS011;62755;-33.398;-70.572;2022-09-09T07:19:44;8.88;;;4.90;;
74335;SDS011;62755;-33.398;-70.572;2022-09-09T07:22:14;8.02;;;4.93;;
74335;SDS011;62755;-33.398;-70.572;2022-09-09T07:24:43;7.32;;;5.50;;
74335;SDS011;62755;-33.398;-70.572;2022-09-09T07:27:13;7.60;;;5.30;;
74335;SDS011;62755;-33.398;-70.572;2022-09-09T07:29:44;7.13;;;5.07;;
74335;SDS011;62755;-33.398;-70.572;2022-09-09T07:32:14;5.78;;;5.18;;
74335;SDS011;62755;-33.398;-70.572;2022-09-09T07:34:45;5.90;;;4.85;;
74335;SDS011;62755;-33.398;-70.572;2022-09-09T07:37:16;6.88;;;5.38;;
74335;SDS011;62755;-33.398;-70.572;2022-09-09T07:39:46;7.75;;;6.05;;
74335;SDS011;62755;-33.398;-70.572;2022-09-09T07:42:16;9.57;;;6.03;;
74335;SDS011;62755;-33.398;-70.572;2022-09-09T07:44:48;8.25;;;5.53;;
74335;SDS011;62755;-33.398;-70.572;2022-09-09T07:47:20;11.35;;;6.03;;
74335;SDS011;62755;-33.398;-70.572;2022-09-09T07:49:50;8.35;;;5.72;;
74335;SDS011;62755;-33.398;-70.572;2022-09-09T07:52:20;8.18;;;6.25;;
74335;SDS011;62755;-33.398;-70.572;2022-09-09T07:54:50;9.88;;;5.28;;
74335;SDS011;62755;-33.398;-70.572;2022-09-09T07:57:20;12.88;;;5.63;;
74335;SDS011;62755;-33.398;-70.572;2022-09-09T07:59:51;18.38;;;6.40;;
74335;SDS011;62755;-33.398;-70.572;2022-09-09T08:02:22;8.13;;;5.60;;
74335;SDS011;62755;-33.398;-70.572;2022-09-09T08:04:53;7.28;;;4.95;;
74335;SDS011;62755;-33.398;-70.572;2022-09-09T08:07:23;8.57;;;5.70;;
74335;SDS011;62755;-33.398;-70.572;2022-09-09T08:09:53;7.30;;;5.45;;
74335;SDS011;62755;-33.398;-70.572;2022-09-09T08:12:23;11.13;;;5.65;;
74335;SDS011;62755;-33.398;-70.572;2022-09-09T08:14:54;11.27;;;5.25;;
74335;SDS011;62755;-33.398;-70.572;2022-09-09T08:17:24;7.03;;;6.07;;
74335;SDS011;62755;-33.398;-70.572;2022-09-09T08:19:54;8.05;;;5.82;;
74335;SDS011;62755;-33.398;-70.572;2022-09-09T08:22:24;6.57;;;5.60;;
74335;SDS011;62755;-33.398;-70.572;2022-09-09T08:24:53;7.63;;;5.88;;
74335;SDS011;62755;-33.398;-70.572;2022-09-09T08:27:23;9.60;;;5.35;;
74335;SDS011;62755;-33.398;-70.572;2022-09-09T08:29:55;8.60;;;6.45;;
74335;SDS011;62755;-33.398;-70.572;2022-09-09T08:32:24;12.93;;;5.97;;
74335;SDS011;62755;-33.398;-70.572;2022-09-09T08:34:54;11.15;;;6.47;;
74335;SDS011;62755;-33.398;-70.572;2022-09-09T08:37:24;8.60;;;6.35;;
74335;SDS011;62755;-33.398;-70.572;2022-09-09T08:39:53;9.48;;;6.70;;
74335;SDS011;62755;-33.398;-70.572;2022-09-09T08:42:25;12.93;;;6.10;;
74335;SDS011;62755;-33.398;-70.572;2022-09-09T08:45:20;9.25;;;6.28;;
74335;SDS011;62755;-33.398;-70.572;2022-09-09T08:48:02;10.38;;;6.30;;
74335;SDS011;62755;-33.398;-70.572;2022-09-09T08:50:48;7.40;;;6.07;;
74335;SDS011;62755;-33.398;-70.572;2022-09-09T08:53:19;12.55;;;7.05;;
74335;SDS011;62755;-33.398;-70.572;2022-09-09T08:55:51;8.48;;;6.53;;
74335;SDS011;62755;-33.398;-70.572;2022-09-09T08:58:25;8.18;;;7.00;;
74335;SDS011;62755;-33.398;-70.572;2022-09-09T09:01:09;8.88;;;6.13;;
74335;SDS011;62755;-33.398;-70.572;2022-09-09T09:03:51;8.00;;;6.47;;
74335;SDS011;62755;-33.398;-70.572;2022-09-09T09:06:29;10.60;;;6.53;;
74335;SDS011;62755;-33.398;-70.572;2022-09-09T09:09:15;8.05;;;6.10;;
74335;SDS011;62755;-33.398;-70.572;2022-09-09T09:11:52;8.40;;;7.18;;
74335;SDS011;62755;-33.398;-70.572;2022-09-09T09:14:27;10.70;;;7.88;;
74335;SDS011;62755;-33.398;-70.572;2022-09-09T09:17:02;11.77;;;7.68;;
74335;SDS011;62755;-33.398;-70.572;2022-09-09T09:19:34;12.70;;;7.78;;
74335;SDS011;62755;-33.398;-70.572;2022-09-09T09:22:10;8.52;;;7.63;;
74335;SDS011;62755;-33.398;-70.572;2022-09-09T09:24:49;12.23;;;7.97;;
74335;SDS011;62755;-33.398;-70.572;2022-09-09T09:27:24;13.23;;;7.43;;
74335;SDS011;62755;-33.398;-70.572;2022-09-09T09:29:59;11.77;;;8.35;;
74335;SDS011;62755;-33.398;-70.572;2022-09-09T09:32:35;10.15;;;8.30;;
74335;SDS011;62755;-33.398;-70.572;2022-09-09T09:35:10;12.50;;;8.82;;
74335;SDS011;62755;-33.398;-70.572;2022-09-09T09:37:41;12.48;;;8.80;;
74335;SDS011;62755;-33.398;-70.572;2022-09-09T09:40:11;12.20;;;8.95;;
74335;SDS011;62755;-33.398;-70.572;2022-09-09T09:42:51;12.55;;;9.63;;
74335;SDS011;62755;-33.398;-70.572;2022-09-09T09:45:27;11.75;;;9.32;;
74335;SDS011;62755;-33.398;-70.572;2022-09-09T09:48:02;13.65;;;9.73;;
74335;SDS011;62755;-33.398;-70.572;2022-09-09T09:50:34;14.48;;;9.75;;
74335;SDS011;62755;-33.398;-70.572;2022-09-09T09:53:17;13.45;;;9.10;;
74335;SDS011;62755;-33.398;-70.572;2022-09-09T09:55:52;10.32;;;8.73;;
74335;SDS011;62755;-33.398;-70.572;2022-09-09T09:58:25;12.18;;;8.63;;
74335;SDS011;62755;-33.398;-70.572;2022-09-09T10:00:57;9.55;;;7.53;;
74335;SDS011;62755;-33.398;-70.572;2022-09-09T10:03:29;11.05;;;7.68;;
74335;SDS011;62755;-33.398;-70.572;2022-09-09T10:06:03;12.95;;;8.25;;
74335;SDS011;62755;-33.398;-70.572;2022-09-09T10:08:33;11.40;;;8.45;;
74335;SDS011;62755;-33.398;-70.572;2022-09-09T10:11:17;10.70;;;9.02;;
74335;SDS011;62755;-33.398;-70.572;2022-09-09T10:13:57;12.38;;;8.85;;
74335;SDS011;62755;-33.398;-70.572;2022-09-09T10:16:37;11.95;;;9.32;;
74335;SDS011;62755;-33.398;-70.572;2022-09-09T10:19:18;19.10;;;9.65;;
74335;SDS011;62755;-33.398;-70.572;2022-09-09T10:22:00;14.77;;;9.50;;
74335;SDS011;62755;-33.398;-70.572;2022-09-09T10:24:43;12.88;;;9.57;;
74335;SDS011;62755;-33.398;-70.572;2022-09-09T10:27:38;18.83;;;9.07;;
74335;SDS011;62755;-33.398;-70.572;2022-09-09T10:30:21;14.45;;;9.70;;
74335;SDS011;62755;-33.398;-70.572;2022-09-09T10:33:00;12.18;;;9.45;;
74335;SDS011;62755;-33.398;-70.572;2022-09-09T10:35:41;23.33;;;10.45;;
74335;SDS011;62755;-33.398;-70.572;2022-09-09T10:38:18;14.10;;;9.82;;
74335;SDS011;62755;-33.398;-70.572;2022-09-09T10:41:07;13.82;;;9.38;;
74335;SDS011;62755;-33.398;-70.572;2022-09-09T10:43:55;21.33;;;11.18;;
74335;SDS011;62755;-33.398;-70.572;2022-09-09T10:46:45;14.57;;;10.55;;
74335;SDS011;62755;-33.398;-70.572;2022-09-09T10:49:29;15.35;;;10.52;;
74335;SDS011;62755;-33.398;-70.572;2022-09-09T10:52:15;15.93;;;9.95;;
74335;SDS011;62755;-33.398;-70.572;2022-09-09T10:54:50;16.23;;;11.77;;
74335;SDS011;62755;-33.398;-70.572;2022-09-09T10:57:27;17.35;;;11.55;;
74335;SDS011;62755;-33.398;-70.572;2022-09-09T11:00:03;21.90;;;11.52;;
74335;SDS011;62755;-33.398;-70.572;2022-09-09T11:02:35;15.90;;;12.63;;
74335;SDS011;62755;-33.398;-70.572;2022-09-09T11:05:10;18.02;;;12.60;;
74335;SDS011;62755;-33.398;-70.572;2022-09-09T11:07:49;20.50;;;13.23;;
74335;SDS011;62755;-33.398;-70.572;2022-09-09T11:10:22;25.15;;;13.48;;
74335;SDS011;62755;-33.398;-70.572;2022-09-09T11:13:09;23.25;;;13.07;;
74335;SDS011;62755;-33.398;-70.572;2022-09-09T11:15:42;25.80;;;12.82;;
74335;SDS011;62755;-33.398;-70.572;2022-09-09T11:18:14;27.17;;;13.27;;
74335;SDS011;62755;-33.398;-70.572;2022-09-09T11:20:47;26.65;;;13.38;;
74335;SDS011;62755;-33.398;-70.572;2022-09-09T11:23:24;24.63;;;13.23;;
74335;SDS011;62755;-33.398;-70.572;2022-09-09T11:25:58;25.58;;;12.30;;
74335;SDS011;62755;-33.398;-70.572;2022-09-09T11:28:37;19.58;;;12.40;;
74335;SDS011;62755;-33.398;-70.572;2022-09-09T11:31:19;22.80;;;11.55;;
74335;SDS011;62755;-33.398;-70.572;2022-09-09T11:34:02;18.38;;;11.57;;
74335;SDS011;62755;-33.398;-70.572;2022-09-09T11:36:48;20.10;;;11.77;;
74335;SDS011;62755;-33.398;-70.572;2022-09-09T11:39:48;21.23;;;11.05;;
74335;SDS011;62755;-33.398;-70.572;2022-09-09T11:42:25;17.98;;;10.90;;
74335;SDS011;62755;-33.398;-70.572;2022-09-09T11:44:55;25.48;;;12.27;;
74335;SDS011;62755;-33.398;-70.572;2022-09-09T11:47:25;23.77;;;14.40;;
74335;SDS011;62755;-33.398;-70.572;2022-09-09T11:50:07;24.98;;;11.68;;
74335;SDS011;62755;-33.398;-70.572;2022-09-09T11:52:39;23.33;;;14.18;;
74335;SDS011;62755;-33.398;-70.572;2022-09-09T11:55:31;21.77;;;14.43;;
74335;SDS011;62755;-33.398;-70.572;2022-09-09T11:58:03;23.80;;;14.95;;
74335;SDS011;62755;-33.398;-70.572;2022-09-09T12:00:34;23.63;;;12.93;;
74335;SDS011;62755;-33.398;-70.572;2022-09-09T12:03:06;27.83;;;14.02;;
74335;SDS011;62755;-33.398;-70.572;2022-09-09T12:05:58;29.48;;;14.23;;
74335;SDS011;62755;-33.398;-70.572;2022-09-09T12:08:37;29.40;;;14.15;;
74335;SDS011;62755;-33.398;-70.572;2022-09-09T12:11:22;26.88;;;14.07;;
74335;SDS011;62755;-33.398;-70.572;2022-09-09T12:13:55;22.83;;;14.90;;
74335;SDS011;62755;-33.398;-70.572;2022-09-09T12:16:32;24.17;;;14.18;;
74335;SDS011;62755;-33.398;-70.572;2022-09-09T12:19:04;24.58;;;14.02;;
74335;SDS011;62755;-33.398;-70.572;2022-09-09T12:21:44;29.27;;;16.25;;
74335;SDS011;62755;-33.398;-70.572;2022-09-09T12:24:20;22.88;;;15.98;;
74335;SDS011;62755;-33.398;-70.572;2022-09-09T12:26:59;21.20;;;14.45;;
74335;SDS011;62755;-33.398;-70.572;2022-09-09T12:29:37;28.73;;;15.20;;
74335;SDS011;62755;-33.398;-70.572;2022-09-09T12:32:14;28.85;;;16.15;;
74335;SDS011;62755;-33.398;-70.572;2022-09-09T12:34:47;31.65;;;16.38;;
74335;SDS011;62755;-33.398;-70.572;2022-09-09T12:37:27;32.38;;;20.13;;
74335;SDS011;62755;-33.398;-70.572;2022-09-09T12:40:02;31.80;;;20.42;;
74335;SDS011;62755;-33.398;-70.572;2022-09-09T12:42:39;30.73;;;20.17;;
74335;SDS011;62755;-33.398;-70.572;2022-09-09T12:45:15;30.77;;;21.73;;
74335;SDS011;62755;-33.398;-70.572;2022-09-09T12:47:47;34.97;;;20.85;;
74335;SDS011;62755;-33.398;-70.572;2022-09-09T12:50:19;31.67;;;21.40;;
74335;SDS011;62755;-33.398;-70.572;2022-09-09T12:52:51;39.47;;;22.20;;
74335;SDS011;62755;-33.398;-70.572;2022-09-09T12:55:24;34.08;;;21.48;;
74335;SDS011;62755;-33.398;-70.572;2022-09-09T12:57:57;32.20;;;20.85;;
74335;SDS011;62755;-33.398;-70.572;2022-09-09T13:00:30;37.80;;;21.40;;
74335;SDS011;62755;-33.398;-70.572;2022-09-09T13:03:00;31.75;;;21.80;;
74335;SDS011;62755;-33.398;-70.572;2022-09-09T13:05:42;34.15;;;23.48;;
74335;SDS011;62755;-33.398;-70.572;2022-09-09T13:08:12;42.72;;;22.50;;
74335;SDS011;62755;-33.398;-70.572;2022-09-09T13:10:46;34.47;;;22.80;;
74335;SDS011;62755;-33.398;-70.572;2022-09-09T13:13:23;32.78;;;22.90;;
74335;SDS011;62755;-33.398;-70.572;2022-09-09T13:15:56;34.13;;;22.42;;
74335;SDS011;62755;-33.398;-70.572;2022-09-09T13:18:27;36.35;;;23.42;;
74335;SDS011;62755;-33.398;-70.572;2022-09-09T13:20:59;35.20;;;23.77;;
74335;SDS011;62755;-33.398;-70.572;2022-09-09T13:23:30;43.28;;;24.83;;
74335;SDS011;62755;-33.398;-70.572;2022-09-09T13:26:01;34.15;;;23.65;;
74335;SDS011;62755;-33.398;-70.572;2022-09-09T13:28:34;35.38;;;23.45;;
74335;SDS011;62755;-33.398;-70.572;2022-09-09T13:31:04;44.72;;;23.80;;
74335;SDS011;62755;-33.398;-70.572;2022-09-09T13:33:47;40.90;;;24.15;;
74335;SDS011;62755;-33.398;-70.572;2022-09-09T13:36:26;40.03;;;24.30;;
74335;SDS011;62755;-33.398;-70.572;2022-09-09T13:38:58;43.63;;;25.52;;
74335;SDS011;62755;-33.398;-70.572;2022-09-09T13:41:29;34.22;;;23.92;;
74335;SDS011;62755;-33.398;-70.572;2022-09-09T13:44:03;40.10;;;24.80;;
74335;SDS011;62755;-33.398;-70.572;2022-09-09T13:46:34;39.88;;;24.25;;
74335;SDS011;62755;-33.398;-70.572;2022-09-09T13:49:18;43.10;;;24.00;;
74335;SDS011;62755;-33.398;-70.572;2022-09-09T13:51:49;49.95;;;26.13;;
74335;SDS011;62755;-33.398;-70.572;2022-09-09T13:54:19;39.03;;;25.02;;
74335;SDS011;62755;-33.398;-70.572;2022-09-09T13:56:50;45.72;;;25.38;;
74335;SDS011;62755;-33.398;-70.572;2022-09-09T13:59:22;43.60;;;26.15;;
74335;SDS011;62755;-33.398;-70.572;2022-09-09T14:01:53;39.58;;;26.65;;
74335;SDS011;62755;-33.398;-70.572;2022-09-09T14:04:23;36.33;;;25.23;;
74335;SDS011;62755;-33.398;-70.572;2022-09-09T14:06:52;53.55;;;25.90;;
74335;SDS011;62755;-33.398;-70.572;2022-09-09T14:09:23;37.33;;;23.15;;
74335;SDS011;62755;-33.398;-70.572;2022-09-09T14:11:52;50.50;;;25.67;;
74335;SDS011;62755;-33.398;-70.572;2022-09-09T14:14:24;52.10;;;25.48;;
74335;SDS011;62755;-33.398;-70.572;2022-09-09T14:16:53;45.88;;;23.90;;
74335;SDS011;62755;-33.398;-70.572;2022-09-09T14:19:23;37.08;;;23.85;;
74335;SDS011;62755;-33.398;-70.572;2022-09-09T14:21:53;39.25;;;23.52;;
74335;SDS011;62755;-33.398;-70.572;2022-09-09T14:24:23;35.88;;;23.17;;
74335;SDS011;62755;-33.398;-70.572;2022-09-09T14:26:53;52.65;;;23.98;;
74335;SDS011;62755;-33.398;-70.572;2022-09-09T14:29:25;36.47;;;23.67;;
74335;SDS011;62755;-33.398;-70.572;2022-09-09T14:31:54;30.17;;;24.23;;
74335;SDS011;62755;-33.398;-70.572;2022-09-09T14:34:26;39.05;;;23.85;;
74335;SDS011;62755;-33.398;-70.572;2022-09-09T14:36:58;36.15;;;23.35;;